Time;durP1;ratioP1;P1;durP2;ratioP2;P2;SDS_P1;SDS_P2;PMS_P1;PMS_P2;Temp;Humidity;BMP_temperature;BMP_pressure;BME280_temperature;BME280_humidity;BME280_pressure;Samples;Min_cycle;Max_cycle;Signal;HPM_P1;HPM_P2
2024/03/13 00:01:52;;;;;;;1.43;0.50;;;;;;;;;;5069862;28;20090;-57
2024/03/13 00:04:18;;;;;;;0.90;0.47;;;;;;;;;;5070130;28;20052;-58
2024/03/13 00:06:44;;;;;;;2.33;0.60;;;;;;;;;;5070189;28;20032;-58
2024/03/13 00:09:10;;;;;;;2.35;0.73;;;;;;;;;;5070292;28;20037;-59
2024/03/13 00:11:35;;;;;;;1.65;0.55;;;;;;;;;;5069971;28;20090;-57
2024/03/13 00:14:02;;;;;;;1.00;0.50;;;;;;;;;;5070802;28;20028;-50
2024/03/13 00:16:30;;;;;;;2.95;0.70;;;;;;;;;;5069886;28;20040;-55
2024/03/13 00:18:55;;;;;;;1.27;0.50;;;;;;;;;;5070130;28;20497;-54
2024/03/13 00:21:21;;;;;;;1.50;0.60;;;;;;;;;;5069762;28;20056;-50
2024/03/13 00:23:47;;;;;;;1.02;0.60;;;;;;;;;;5070000;28;20522;-52
2024/03/13 00:26:12;;;;;;;1.00;0.43;;;;;;;;;;5070409;28;20048;-56
2024/03/13 00:28:39;;;;;;;1.88;1.10;;;;;;;;;;5068377;28;20393;-55
2024/03/13 00:31:08;;;;;;;1.73;0.52;;;;;;;;;;5070443;28;20040;-51
2024/03/13 00:33:33;;;;;;;1.35;0.60;;;;;;;;;;5069652;28;20071;-55
2024/03/13 00:35:59;;;;;;;2.15;0.60;;;;;;;;;;5069857;28;20387;-52
2024/03/13 00:38:25;;;;;;;1.13;0.50;;;;;;;;;;5069510;28;20028;-51
2024/03/13 00:40:52;;;;;;;1.27;0.45;;;;;;;;;;5069533;28;20044;-54
2024/03/13 00:43:18;;;;;;;0.80;0.50;;;;;;;;;;5070123;28;20547;-50
2024/03/13 00:45:43;;;;;;;1.30;0.60;;;;;;;;;;5069995;28;20052;-52
2024/03/13 00:48:09;;;;;;;1.65;0.50;;;;;;;;;;5069704;28;20399;-53
2024/03/13 00:50:35;;;;;;;2.28;0.55;;;;;;;;;;5069676;28;20569;-51
2024/03/13 00:53:01;;;;;;;1.75;0.55;;;;;;;;;;5070308;28;20089;-56
2024/03/13 00:55:27;;;;;;;2.85;0.60;;;;;;;;;;5063378;28;20044;-59
2024/03/13 00:57:52;;;;;;;5.30;0.70;;;;;;;;;;5068315;28;20163;-59
2024/03/13 01:00:21;;;;;;;1.45;0.60;;;;;;;;;;5068355;28;20119;-60
2024/03/13 01:02:47;;;;;;;2.13;0.60;;;;;;;;;;5069230;28;20526;-60
2024/03/13 01:05:16;;;;;;;2.20;0.73;;;;;;;;;;5067598;28;20033;-59
2024/03/13 01:07:44;;;;;;;2.30;0.90;;;;;;;;;;5070121;28;20041;-52
2024/03/13 01:10:09;;;;;;;5.18;1.00;;;;;;;;;;5067358;28;20044;-49
2024/03/13 01:12:34;;;;;;;1.77;0.70;;;;;;;;;;5072796;28;20047;-49
2024/03/13 01:15:00;;;;;;;2.13;0.70;;;;;;;;;;5074021;28;20464;-53
2024/03/13 01:17:25;;;;;;;1.45;0.68;;;;;;;;;;5073686;28;20059;-53
2024/03/13 01:19:51;;;;;;;1.63;0.80;;;;;;;;;;5072302;28;20049;-51
2024/03/13 01:22:18;;;;;;;1.42;0.60;;;;;;;;;;5073978;28;20029;-49
2024/03/13 01:24:46;;;;;;;2.28;0.80;;;;;;;;;;5073912;28;20589;-50
2024/03/13 01:27:11;;;;;;;2.22;0.70;;;;;;;;;;5072974;28;20571;-52
2024/03/13 01:29:38;;;;;;;1.35;0.57;;;;;;;;;;5073655;28;20111;-52
2024/03/13 01:32:04;;;;;;;2.83;0.60;;;;;;;;;;5073026;28;20032;-53
2024/03/13 01:34:30;;;;;;;0.50;0.40;;;;;;;;;;5072417;28;20025;-51
2024/03/13 01:39:39;;;;;;;1.33;0.70;;;;;;;;;;5071653;28;20047;-52
2024/03/13 01:56:27;;;;;;;2.22;0.55;;;;;;;;;;5057832;28;20119;-49
2024/03/13 01:59:02;;;;;;;;;;;;;;;;;;5072948;28;20525;-52
2024/03/13 02:04:14;;;;;;;1.42;0.60;;;;;;;;;;5066318;28;20510;-52
2024/03/13 02:06:40;;;;;;;2.40;0.60;;;;;;;;;;5071837;28;20041;-50
2024/03/13 02:09:06;;;;;;;1.25;0.57;;;;;;;;;;5072933;28;20066;-51
2024/03/13 02:11:31;;;;;;;3.88;0.70;;;;;;;;;;5072598;28;20123;-51
2024/03/13 02:14:02;;;;;;;2.10;0.50;;;;;;;;;;5072345;28;20076;-53
2024/03/13 02:16:28;;;;;;;0.95;0.50;;;;;;;;;;5072657;28;20439;-52
2024/03/13 02:18:56;;;;;;;2.60;0.50;;;;;;;;;;5072349;28;20035;-50
2024/03/13 02:21:22;;;;;;;1.55;0.55;;;;;;;;;;5071458;28;20033;-49
2024/03/13 02:23:47;;;;;;;0.85;0.43;;;;;;;;;;5072678;28;20029;-52
2024/03/13 02:26:13;;;;;;;1.10;0.60;;;;;;;;;;5073054;28;20103;-53
2024/03/13 02:28:39;;;;;;;1.75;0.70;;;;;;;;;;5072433;28;20059;-51
2024/03/13 02:31:07;;;;;;;2.08;0.63;;;;;;;;;;5071888;28;20468;-48
2024/03/13 02:33:36;;;;;;;1.80;0.80;;;;;;;;;;5072150;28;20135;-51
2024/03/13 02:36:01;;;;;;;1.55;0.57;;;;;;;;;;5071840;28;20032;-49
2024/03/13 02:38:28;;;;;;;3.50;0.85;;;;;;;;;;5072098;28;20092;-50
2024/03/13 02:40:53;;;;;;;1.40;0.68;;;;;;;;;;5072130;28;20033;-53
2024/03/13 02:43:19;;;;;;;2.05;0.50;;;;;;;;;;5072092;28;20029;-49
2024/03/13 02:45:45;;;;;;;1.67;0.65;;;;;;;;;;5071750;28;20028;-50
2024/03/13 02:48:12;;;;;;;2.72;0.70;;;;;;;;;;5071714;28;20052;-50
2024/03/13 02:50:40;;;;;;;1.52;0.60;;;;;;;;;;5071589;28;20047;-49
2024/03/13 02:53:07;;;;;;;0.90;0.50;;;;;;;;;;5066834;28;20029;-49
2024/03/13 02:55:33;;;;;;;1.92;0.77;;;;;;;;;;5072119;28;20032;-50
2024/03/13 02:57:58;;;;;;;1.52;0.60;;;;;;;;;;5071761;28;20419;-52
2024/03/13 03:00:25;;;;;;;2.72;0.60;;;;;;;;;;5069235;28;20110;-50
2024/03/13 03:02:51;;;;;;;2.35;0.80;;;;;;;;;;5066242;28;20033;-54
2024/03/13 03:05:18;;;;;;;2.03;0.70;;;;;;;;;;5071244;28;20109;-51
2024/03/13 03:07:43;;;;;;;0.52;0.43;;;;;;;;;;5071414;28;20028;-53
2024/03/13 03:10:09;;;;;;;1.40;0.50;;;;;;;;;;5069116;28;20078;-50
2024/03/13 03:12:34;;;;;;;2.00;0.60;;;;;;;;;;5071627;28;20458;-53
2024/03/13 03:15:00;;;;;;;1.83;0.60;;;;;;;;;;5071836;28;20040;-54
2024/03/13 03:17:25;;;;;;;1.88;0.60;;;;;;;;;;5070811;28;20028;-51
2024/03/13 03:19:51;;;;;;;1.48;0.60;;;;;;;;;;5071079;28;20472;-49
2024/03/13 03:22:17;;;;;;;1.60;0.40;;;;;;;;;;5070884;28;20048;-50
2024/03/13 03:24:43;;;;;;;5.57;0.60;;;;;;;;;;5071151;28;20036;-49
2024/03/13 03:27:09;;;;;;;0.85;0.50;;;;;;;;;;5071422;28;20037;-53
2024/03/13 03:29:36;;;;;;;1.65;0.60;;;;;;;;;;5070995;28;20460;-51
2024/03/13 03:32:01;;;;;;;0.77;0.40;;;;;;;;;;5070467;28;20028;-53
2024/03/13 03:34:26;;;;;;;0.82;0.50;;;;;;;;;;5069500;28;20032;-50
2024/03/13 03:36:53;;;;;;;1.08;0.55;;;;;;;;;;5071276;28;20107;-54
2024/03/13 03:39:23;;;;;;;1.05;0.50;;;;;;;;;;5069150;28;20576;-51
2024/03/13 03:41:48;;;;;;;3.58;0.95;;;;;;;;;;5070323;28;20127;-51
2024/03/13 03:44:13;;;;;;;1.42;0.60;;;;;;;;;;5071039;28;20163;-50
2024/03/13 03:46:42;;;;;;;1.48;0.60;;;;;;;;;;5070531;28;20475;-50
2024/03/13 03:49:07;;;;;;;1.25;0.50;;;;;;;;;;5070246;28;20048;-51
2024/03/13 03:51:32;;;;;;;1.77;0.60;;;;;;;;;;5070437;28;20534;-53
2024/03/13 03:53:58;;;;;;;1.10;0.57;;;;;;;;;;5071141;28;20471;-53
2024/03/13 03:56:24;;;;;;;1.00;0.45;;;;;;;;;;5070237;28;20032;-53
2024/03/13 03:58:50;;;;;;;1.55;0.60;;;;;;;;;;5070808;28;20044;-50
2024/03/13 04:01:16;;;;;;;1.85;0.40;;;;;;;;;;5070159;28;20039;-52
2024/03/13 04:03:42;;;;;;;0.75;0.43;;;;;;;;;;5070110;28;20050;-51
2024/03/13 04:06:07;;;;;;;0.65;0.40;;;;;;;;;;5070134;28;20406;-53
2024/03/13 04:08:33;;;;;;;0.90;0.35;;;;;;;;;;5070792;28;20051;-54
2024/03/13 04:10:58;;;;;;;1.42;0.50;;;;;;;;;;5070215;28;20036;-51
2024/03/13 04:13:24;;;;;;;1.40;0.40;;;;;;;;;;5070591;28;20028;-52
2024/03/13 04:15:53;;;;;;;0.93;0.35;;;;;;;;;;5070341;28;20111;-50
2024/03/13 04:18:18;;;;;;;0.98;0.40;;;;;;;;;;5070178;28;20029;-50
2024/03/13 04:20:45;;;;;;;1.58;0.55;;;;;;;;;;5069739;28;20048;-55
2024/03/13 04:23:13;;;;;;;1.70;0.57;;;;;;;;;;5070659;28;20035;-49
2024/03/13 04:25:43;;;;;;;1.52;0.60;;;;;;;;;;5070550;28;20106;-50
2024/03/13 04:28:08;;;;;;;1.02;0.60;;;;;;;;;;5069776;28;20035;-53
2024/03/13 04:30:34;;;;;;;2.03;0.47;;;;;;;;;;5070328;28;20028;-51
2024/03/13 04:32:59;;;;;;;1.00;0.40;;;;;;;;;;5069876;28;20502;-51
2024/03/13 04:35:25;;;;;;;2.22;0.50;;;;;;;;;;5069714;28;20036;-51
2024/03/13 04:37:51;;;;;;;1.20;0.50;;;;;;;;;;5070207;28;20130;-51
2024/03/13 04:40:18;;;;;;;2.00;0.52;;;;;;;;;;5070125;28;20036;-53
2024/03/13 04:42:44;;;;;;;1.05;0.57;;;;;;;;;;5069838;28;20031;-51
2024/03/13 04:45:10;;;;;;;1.63;0.57;;;;;;;;;;5068640;28;20032;-54
2024/03/13 04:47:35;;;;;;;1.15;0.50;;;;;;;;;;5063282;28;20381;-51
2024/03/13 04:50:02;;;;;;;0.80;0.40;;;;;;;;;;5069656;28;20037;-54
2024/03/13 04:52:29;;;;;;;1.48;0.52;;;;;;;;;;5064067;28;20037;-52
2024/03/13 04:54:55;;;;;;;0.95;0.40;;;;;;;;;;5070224;28;20121;-50
2024/03/13 04:57:20;;;;;;;0.57;0.40;;;;;;;;;;5070118;28;20059;-48
2024/03/13 04:59:45;;;;;;;0.32;0.30;;;;;;;;;;5069489;28;20025;-49
2024/03/13 05:02:11;;;;;;;0.80;0.47;;;;;;;;;;5069340;28;20033;-50
2024/03/13 05:04:36;;;;;;;2.35;0.50;;;;;;;;;;5069653;28;20497;-51
2024/03/13 05:07:02;;;;;;;1.02;0.52;;;;;;;;;;5069430;28;20563;-50
2024/03/13 05:09:30;;;;;;;0.90;0.47;;;;;;;;;;5070054;28;20548;-52
2024/03/13 05:11:56;;;;;;;1.20;0.47;;;;;;;;;;5068422;28;20036;-53
2024/03/13 05:14:21;;;;;;;2.50;0.55;;;;;;;;;;5069622;28;20033;-52
2024/03/13 05:16:46;;;;;;;0.98;0.45;;;;;;;;;;5069538;28;20052;-50
2024/03/13 05:19:13;;;;;;;0.95;0.50;;;;;;;;;;5069682;28;20045;-50
2024/03/13 05:21:38;;;;;;;0.90;0.30;;;;;;;;;;5069528;28;20690;-52
2024/03/13 05:24:04;;;;;;;0.52;0.35;;;;;;;;;;5069812;28;20041;-53
2024/03/13 05:26:30;;;;;;;1.10;0.50;;;;;;;;;;5069628;28;20435;-53
2024/03/13 05:28:56;;;;;;;0.73;0.35;;;;;;;;;;5068999;28;20137;-52
2024/03/13 05:31:21;;;;;;;1.63;0.70;;;;;;;;;;5065824;28;20048;-52
2024/03/13 05:33:47;;;;;;;1.55;0.63;;;;;;;;;;5069572;28;20049;-51
2024/03/13 05:36:13;;;;;;;0.60;0.40;;;;;;;;;;5069361;28;20044;-54
2024/03/13 05:38:38;;;;;;;0.95;0.50;;;;;;;;;;5069260;28;20029;-51
2024/03/13 05:41:06;;;;;;;0.35;0.30;;;;;;;;;;5069183;28;20024;-51
2024/03/13 05:43:31;;;;;;;0.32;0.30;;;;;;;;;;5069570;28;20112;-52
2024/03/13 05:45:56;;;;;;;1.30;0.63;;;;;;;;;;5069065;28;20182;-52
2024/03/13 05:48:22;;;;;;;0.40;0.40;;;;;;;;;;5051890;28;20032;-53
2024/03/13 05:50:48;;;;;;;1.08;0.50;;;;;;;;;;5069552;28;20043;-53
2024/03/13 05:53:13;;;;;;;1.10;0.47;;;;;;;;;;5068742;28;20400;-52
2024/03/13 05:55:39;;;;;;;0.38;0.30;;;;;;;;;;5068875;28;20037;-54
2024/03/13 05:58:04;;;;;;;0.32;0.30;;;;;;;;;;5072521;28;20033;-50
2024/03/13 06:00:29;;;;;;;1.52;0.60;;;;;;;;;;5070658;28;20127;-55
2024/03/13 06:02:55;;;;;;;0.57;0.40;;;;;;;;;;5072525;28;20032;-53
2024/03/13 06:05:21;;;;;;;1.00;0.40;;;;;;;;;;5073393;28;20032;-50
2024/03/13 06:07:47;;;;;;;0.65;0.40;;;;;;;;;;5072664;28;20028;-53
2024/03/13 06:10:12;;;;;;;0.90;0.40;;;;;;;;;;5072269;28;20025;-52
2024/03/13 06:12:38;;;;;;;3.95;0.45;;;;;;;;;;5072764;28;20071;-53
2024/03/13 06:15:07;;;;;;;0.55;0.30;;;;;;;;;;5072605;28;20060;-52
2024/03/13 06:17:34;;;;;;;0.32;0.30;;;;;;;;;;5071415;28;20036;-52
2024/03/13 06:20:00;;;;;;;0.85;0.40;;;;;;;;;;5072612;28;20468;-52
2024/03/13 06:22:25;;;;;;;0.32;0.30;;;;;;;;;;5072223;28;20080;-53
2024/03/13 06:24:51;;;;;;;1.42;0.50;;;;;;;;;;5072465;28;20115;-51
2024/03/13 06:27:27;;;;;;;1.95;0.43;;;;;;;;;;5072289;28;20147;-54
2024/03/13 06:29:59;;;;;;;0.47;0.30;;;;;;;;;;5072569;28;20086;-49
2024/03/13 06:32:31;;;;;;;0.73;0.50;;;;;;;;;;5071671;28;20107;-53
2024/03/13 06:35:04;;;;;;;1.10;0.50;;;;;;;;;;5065640;28;20086;-54
2024/03/13 06:37:31;;;;;;;;;;;;;;;;;;5069540;28;20031;-54
2024/03/13 06:39:57;;;;;;;1.15;0.47;;;;;;;;;;5072031;28;19963;-53
2024/03/13 06:42:24;;;;;;;2.70;0.40;;;;;;;;;;5071658;28;20036;-52
2024/03/13 06:44:49;;;;;;;0.90;0.50;;;;;;;;;;5072433;28;20024;-49
2024/03/13 06:47:14;;;;;;;0.73;0.35;;;;;;;;;;5071945;28;20045;-50
2024/03/13 06:49:40;;;;;;;0.45;0.30;;;;;;;;;;5072033;28;20111;-53
2024/03/13 06:52:12;;;;;;;0.68;0.35;;;;;;;;;;5071809;28;20032;-53
2024/03/13 06:54:38;;;;;;;0.73;0.30;;;;;;;;;;5071516;28;20075;-51
2024/03/13 06:57:04;;;;;;;0.30;0.30;;;;;;;;;;5071708;28;20032;-53
2024/03/13 06:59:29;;;;;;;1.45;0.50;;;;;;;;;;5071482;28;20036;-60
2024/03/13 07:01:55;;;;;;;1.77;0.32;;;;;;;;;;5072037;28;20033;-59
2024/03/13 07:04:24;;;;;;;4.72;0.60;;;;;;;;;;5070258;28;20472;-59
2024/03/13 07:06:57;;;;;;;1.05;0.40;;;;;;;;;;5071015;28;20664;-60
2024/03/13 07:09:23;;;;;;;2.75;0.50;;;;;;;;;;5070837;28;20032;-59
2024/03/13 07:11:50;;;;;;;3.08;0.40;;;;;;;;;;5070961;28;20032;-59
2024/03/13 07:14:17;;;;;;;0.30;0.30;;;;;;;;;;5071604;28;20060;-59
2024/03/13 07:16:43;;;;;;;3.28;0.40;;;;;;;;;;5071014;28;20547;-58
2024/03/13 07:19:09;;;;;;;1.10;0.60;;;;;;;;;;5068032;28;20198;-60
2024/03/13 07:21:35;;;;;;;1.60;0.40;;;;;;;;;;5072361;28;20162;-60
2024/03/13 07:24:00;;;;;;;0.35;0.30;;;;;;;;;;5072743;28;20119;-59
2024/03/13 07:26:26;;;;;;;0.73;0.40;;;;;;;;;;5069631;28;20392;-60
2024/03/13 07:28:51;;;;;;;1.35;0.43;;;;;;;;;;5070680;28;20036;-58
2024/03/13 07:31:17;;;;;;;1.08;0.68;;;;;;;;;;5070054;28;20033;-60
2024/03/13 07:33:42;;;;;;;0.65;0.38;;;;;;;;;;5070492;28;20043;-59
2024/03/13 07:36:07;;;;;;;1.90;0.68;;;;;;;;;;5070029;28;20029;-57
2024/03/13 07:38:33;;;;;;;1.08;0.55;;;;;;;;;;5070663;28;20036;-60
2024/03/13 07:41:01;;;;;;;2.58;0.40;;;;;;;;;;5070826;28;20074;-60
2024/03/13 07:43:26;;;;;;;1.85;0.50;;;;;;;;;;5071843;28;20028;-60
2024/03/13 07:45:54;;;;;;;0.98;0.45;;;;;;;;;;5070880;28;20102;-59
2024/03/13 07:48:19;;;;;;;1.20;0.43;;;;;;;;;;5070776;28;20379;-55
2024/03/13 07:50:44;;;;;;;0.93;0.40;;;;;;;;;;5069493;28;20111;-58
2024/03/13 07:53:10;;;;;;;0.52;0.30;;;;;;;;;;5070232;28;20503;-58
2024/03/13 07:55:36;;;;;;;2.97;0.47;;;;;;;;;;5070023;28;20399;-60
2024/03/13 07:58:02;;;;;;;1.08;0.43;;;;;;;;;;5070454;28;20419;-59
2024/03/13 08:00:28;;;;;;;1.05;0.52;;;;;;;;;;5070083;28;20055;-60
2024/03/13 08:02:55;;;;;;;1.65;0.63;;;;;;;;;;5069387;28;20024;-59
2024/03/13 08:05:20;;;;;;;1.27;0.40;;;;;;;;;;5069916;28;20036;-58
2024/03/13 08:07:46;;;;;;;1.92;0.40;;;;;;;;;;5070375;28;20044;-59
2024/03/13 08:10:17;;;;;;;1.70;0.47;;;;;;;;;;5070144;28;20087;-58
2024/03/13 08:12:43;;;;;;;3.78;0.57;;;;;;;;;;5069049;28;20037;-58
2024/03/13 08:15:09;;;;;;;3.40;0.50;;;;;;;;;;5069911;28;20041;-60
2024/03/13 08:17:34;;;;;;;4.10;0.60;;;;;;;;;;5070370;28;20043;-60
2024/03/13 08:20:00;;;;;;;1.98;0.40;;;;;;;;;;5069996;28;20048;-58
2024/03/13 08:22:26;;;;;;;1.13;0.57;;;;;;;;;;5069971;28;20114;-53
2024/03/13 08:24:52;;;;;;;1.55;0.30;;;;;;;;;;5070478;28;20021;-53
2024/03/13 08:27:18;;;;;;;1.88;0.63;;;;;;;;;;5070565;28;20415;-54
2024/03/13 08:29:43;;;;;;;2.85;0.43;;;;;;;;;;5070085;28;20086;-54
2024/03/13 08:32:09;;;;;;;2.20;0.30;;;;;;;;;;5070199;28;20035;-54
2024/03/13 08:34:35;;;;;;;1.63;0.40;;;;;;;;;;5070241;28;20058;-49
2024/03/13 08:37:03;;;;;;;0.68;0.40;;;;;;;;;;5072249;28;20067;-54
2024/03/13 08:39:28;;;;;;;0.98;0.50;;;;;;;;;;5069697;28;20035;-53
2024/03/13 08:41:54;;;;;;;1.38;0.45;;;;;;;;;;5069954;28;20036;-53
2024/03/13 08:44:20;;;;;;;2.55;0.63;;;;;;;;;;5069994;28;20071;-52
2024/03/13 08:46:45;;;;;;;2.38;0.50;;;;;;;;;;5069639;28;20052;-52
2024/03/13 08:49:11;;;;;;;1.00;0.43;;;;;;;;;;5055249;28;20078;-60
2024/03/13 08:51:36;;;;;;;0.47;0.30;;;;;;;;;;5069630;28;20411;-57
2024/03/13 08:54:01;;;;;;;1.42;0.50;;;;;;;;;;5069254;28;20024;-60
2024/03/13 08:56:27;;;;;;;2.85;0.40;;;;;;;;;;5069486;28;20082;-57
2024/03/13 08:58:52;;;;;;;2.22;0.50;;;;;;;;;;5070431;28;20029;-58
2024/03/13 09:01:18;;;;;;;1.13;0.40;;;;;;;;;;5068654;28;20059;-54
2024/03/13 09:03:44;;;;;;;0.65;0.40;;;;;;;;;;5068777;28;20585;-56
2024/03/13 09:06:15;;;;;;;1.08;0.40;;;;;;;;;;5067530;28;20036;-53
2024/03/13 09:08:41;;;;;;;3.15;0.57;;;;;;;;;;5069596;28;20029;-52
2024/03/13 09:11:07;;;;;;;2.53;0.52;;;;;;;;;;5069691;28;20028;-50
2024/03/13 09:13:32;;;;;;;3.13;0.80;;;;;;;;;;5069771;28;20131;-54
2024/03/13 09:16:04;;;;;;;3.83;0.85;;;;;;;;;;5069770;28;20028;-53
2024/03/13 09:18:29;;;;;;;3.30;0.52;;;;;;;;;;5069673;28;20043;-56
2024/03/13 09:20:55;;;;;;;5.22;0.85;;;;;;;;;;5062327;28;20950;-59
2024/03/13 09:23:20;;;;;;;1.60;0.60;;;;;;;;;;5064755;28;20066;-57
2024/03/13 09:25:46;;;;;;;2.95;0.57;;;;;;;;;;5069352;28;20052;-60
2024/03/13 09:28:11;;;;;;;3.92;0.75;;;;;;;;;;5068499;28;20590;-61
2024/03/13 09:30:36;;;;;;;4.70;0.50;;;;;;;;;;5069729;28;20052;-60
2024/03/13 09:33:08;;;;;;;1.65;0.60;;;;;;;;;;5071825;28;20107;-59
2024/03/13 09:35:33;;;;;;;4.13;0.50;;;;;;;;;;5073465;28;20060;-60
2024/03/13 09:37:58;;;;;;;4.75;0.60;;;;;;;;;;5073152;28;20040;-61
2024/03/13 09:40:24;;;;;;;1.27;0.45;;;;;;;;;;5072668;28;20029;-61
2024/03/13 09:42:53;;;;;;;1.98;0.60;;;;;;;;;;5073066;28;20557;-52
2024/03/13 09:45:22;;;;;;;2.15;0.40;;;;;;;;;;5071524;28;20166;-54
2024/03/13 09:47:49;;;;;;;1.38;0.45;;;;;;;;;;5072369;28;20119;-54
2024/03/13 09:50:15;;;;;;;1.98;0.52;;;;;;;;;;5050658;28;20033;-60
2024/03/13 09:52:42;;;;;;;0.98;0.30;;;;;;;;;;5058522;28;20036;-59
2024/03/13 09:55:11;;;;;;;1.50;0.57;;;;;;;;;;5061896;28;20033;-58
2024/03/13 09:57:38;;;;;;;2.60;0.57;;;;;;;;;;5062853;28;20040;-57
2024/03/13 10:00:14;;;;;;;2.13;0.40;;;;;;;;;;5049408;28;20028;-59
2024/03/13 10:02:42;;;;;;;0.57;0.40;;;;;;;;;;5067752;28;20043;-60
2024/03/13 10:05:12;;;;;;;4.45;0.50;;;;;;;;;;5065635;28;20033;-59
2024/03/13 10:07:38;;;;;;;1.00;0.50;;;;;;;;;;5050372;28;20055;-57
2024/03/13 10:10:24;;;;;;;4.18;0.50;;;;;;;;;;5068317;28;20028;-58
2024/03/13 10:12:49;;;;;;;3.50;0.65;;;;;;;;;;5067730;28;20051;-59
2024/03/13 10:15:16;;;;;;;1.25;0.40;;;;;;;;;;5068380;28;20028;-59
2024/03/13 10:17:47;;;;;;;2.95;0.60;;;;;;;;;;5068270;28;20056;-60
2024/03/13 10:20:14;;;;;;;0.75;0.40;;;;;;;;;;5067740;28;20044;-61
2024/03/13 10:22:40;;;;;;;5.35;0.60;;;;;;;;;;5054826;28;20490;-58
2024/03/13 10:25:11;;;;;;;2.10;0.40;;;;;;;;;;5067967;28;20032;-59
2024/03/13 10:27:38;;;;;;;0.60;0.40;;;;;;;;;;5066436;28;20242;-60
2024/03/13 10:30:04;;;;;;;1.20;0.40;;;;;;;;;;5065669;28;20491;-59
2024/03/13 10:32:30;;;;;;;0.30;0.30;;;;;;;;;;5068214;28;20040;-59
2024/03/13 10:34:55;;;;;;;2.92;0.50;;;;;;;;;;5067444;28;20044;-59
2024/03/13 10:37:22;;;;;;;2.95;0.40;;;;;;;;;;5067962;28;20056;-59
2024/03/13 10:39:47;;;;;;;0.75;0.32;;;;;;;;;;5067316;28;20422;-58
2024/03/13 10:42:12;;;;;;;1.02;0.50;;;;;;;;;;5067134;28;20036;-59
2024/03/13 10:44:38;;;;;;;0.63;0.40;;;;;;;;;;5067309;28;20033;-59
2024/03/13 10:47:04;;;;;;;1.00;0.45;;;;;;;;;;5067497;28;20033;-58
2024/03/13 10:49:29;;;;;;;1.45;0.50;;;;;;;;;;5049802;28;20099;-59
2024/03/13 10:51:56;;;;;;;2.05;0.43;;;;;;;;;;5066756;28;20032;-60
2024/03/13 10:54:23;;;;;;;0.75;0.40;;;;;;;;;;5067360;28;20885;-59
2024/03/13 10:56:52;;;;;;;1.15;0.43;;;;;;;;;;5067647;28;20048;-57
2024/03/13 10:59:19;;;;;;;1.42;0.60;;;;;;;;;;5065408;28;20037;-59
2024/03/13 11:01:47;;;;;;;1.02;0.50;;;;;;;;;;5066864;28;20043;-58
2024/03/13 11:04:14;;;;;;;3.33;0.47;;;;;;;;;;5065063;28;20078;-58
2024/03/13 11:06:40;;;;;;;0.80;0.47;;;;;;;;;;5064692;28;20032;-59
2024/03/13 11:09:17;;;;;;;0.70;0.40;;;;;;;;;;5067546;28;20510;-59
2024/03/13 11:11:42;;;;;;;1.42;0.50;;;;;;;;;;5067047;28;20534;-58
2024/03/13 11:14:09;;;;;;;2.72;0.50;;;;;;;;;;5066182;28;20036;-60
2024/03/13 11:16:37;;;;;;;0.98;0.30;;;;;;;;;;5049390;28;20465;-58
2024/03/13 11:19:04;;;;;;;1.90;0.40;;;;;;;;;;5066700;28;20068;-59
2024/03/13 11:22:08;;;;;;;0.47;0.30;;;;;;;;;;5048584;28;20036;-60
2024/03/13 11:24:34;;;;;;;0.65;0.40;;;;;;;;;;4981374;28;20054;-57
2024/03/13 11:27:08;;;;;;;1.38;0.60;;;;;;;;;;5000074;28;20053;-58
2024/03/13 11:29:41;;;;;;;0.95;0.50;;;;;;;;;;5030677;28;20048;-59
2024/03/13 11:32:08;;;;;;;0.57;0.30;;;;;;;;;;5058743;28;20040;-59
2024/03/13 11:34:35;;;;;;;2.58;0.50;;;;;;;;;;5065516;28;20071;-58
2024/03/13 11:37:03;;;;;;;1.60;0.50;;;;;;;;;;5048386;28;20036;-58
2024/03/13 11:39:29;;;;;;;0.93;0.50;;;;;;;;;;5065638;28;20036;-59
2024/03/13 11:41:54;;;;;;;2.33;0.50;;;;;;;;;;5064553;28;20044;-60
2024/03/13 11:44:19;;;;;;;1.73;0.50;;;;;;;;;;5066076;28;20047;-58
2024/03/13 11:46:49;;;;;;;0.85;0.40;;;;;;;;;;5065070;28;20041;-59
2024/03/13 11:49:15;;;;;;;1.23;0.40;;;;;;;;;;5062361;28;20043;-57
2024/03/13 11:52:02;;;;;;;1.77;0.55;;;;;;;;;;5066011;28;20032;-59
2024/03/13 11:54:34;;;;;;;1.58;0.52;;;;;;;;;;5051899;28;20040;-60
2024/03/13 11:57:04;;;;;;;1.95;0.60;;;;;;;;;;5066200;28;20032;-59
2024/03/13 11:59:40;;;;;;;2.10;0.68;;;;;;;;;;5066544;28;20377;-59
2024/03/13 12:02:28;;;;;;;2.28;0.52;;;;;;;;;;5053429;28;20542;-58
2024/03/13 12:05:04;;;;;;;0.80;0.32;;;;;;;;;;5066222;28;20111;-58
2024/03/13 12:07:45;;;;;;;1.08;0.50;;;;;;;;;;5066403;28;20033;-58
2024/03/13 12:10:15;;;;;;;1.00;0.50;;;;;;;;;;5061110;28;20033;-59
2024/03/13 12:12:41;;;;;;;1.00;0.47;;;;;;;;;;5066277;28;20032;-59
2024/03/13 12:15:08;;;;;;;1.48;0.50;;;;;;;;;;5048068;28;20097;-59
2024/03/13 12:17:33;;;;;;;0.40;0.25;;;;;;;;;;5065006;28;20400;-59
2024/03/13 12:19:58;;;;;;;2.15;0.50;;;;;;;;;;5065935;28;20098;-59
2024/03/13 12:22:24;;;;;;;1.30;0.50;;;;;;;;;;5065487;28;20043;-58
2024/03/13 12:24:51;;;;;;;0.63;0.40;;;;;;;;;;5063342;28;20044;-58
2024/03/13 12:27:17;;;;;;;0.85;0.40;;;;;;;;;;5065271;28;20476;-58
2024/03/13 12:29:44;;;;;;;0.73;0.40;;;;;;;;;;5047921;28;20064;-59
2024/03/13 12:32:13;;;;;;;1.33;0.50;;;;;;;;;;5065344;28;20402;-59
2024/03/13 12:34:41;;;;;;;1.20;0.50;;;;;;;;;;5065278;28;20036;-59
2024/03/13 12:37:14;;;;;;;1.92;0.57;;;;;;;;;;5065113;28;20036;-58
2024/03/13 12:39:40;;;;;;;1.77;0.73;;;;;;;;;;5062914;28;20119;-60
2024/03/13 12:42:08;;;;;;;1.35;0.47;;;;;;;;;;5064736;28;20293;-58
2024/03/13 12:44:33;;;;;;;1.80;0.60;;;;;;;;;;5047848;28;20029;-59
2024/03/13 12:46:59;;;;;;;1.15;0.50;;;;;;;;;;5065061;28;20381;-60
2024/03/13 12:49:25;;;;;;;1.30;0.60;;;;;;;;;;5064542;28;20047;-59
2024/03/13 12:51:54;;;;;;;1.00;0.68;;;;;;;;;;5065056;28;20026;-58
2024/03/13 12:54:23;;;;;;;1.27;0.45;;;;;;;;;;5060261;28;20048;-58
2024/03/13 12:56:50;;;;;;;1.35;0.60;;;;;;;;;;5065101;28;20105;-58
2024/03/13 12:59:15;;;;;;;0.65;0.45;;;;;;;;;;5064611;28;20039;-59
2024/03/13 13:01:41;;;;;;;0.80;0.40;;;;;;;;;;5066246;28;20048;-57
2024/03/13 13:04:14;;;;;;;1.38;0.45;;;;;;;;;;5046258;28;20029;-59
2024/03/13 13:06:39;;;;;;;1.40;0.52;;;;;;;;;;5054660;28;20032;-60
2024/03/13 13:09:08;;;;;;;0.98;0.40;;;;;;;;;;5068599;28;20043;-60
2024/03/13 13:11:37;;;;;;;0.63;0.45;;;;;;;;;;5050475;28;20040;-59
2024/03/13 13:14:02;;;;;;;0.98;0.40;;;;;;;;;;5062509;28;20032;-57
2024/03/13 13:16:28;;;;;;;1.25;0.40;;;;;;;;;;5068106;28;20032;-59
2024/03/13 13:18:53;;;;;;;1.73;0.50;;;;;;;;;;5068746;28;20140;-58
2024/03/13 13:21:18;;;;;;;1.30;0.60;;;;;;;;;;5068155;28;20032;-60
2024/03/13 13:23:44;;;;;;;1.33;0.60;;;;;;;;;;5068575;28;20068;-59
2024/03/13 13:26:09;;;;;;;1.25;0.50;;;;;;;;;;5067615;28;20130;-59
2024/03/13 13:28:34;;;;;;;1.15;0.60;;;;;;;;;;5063985;28;20116;-60
2024/03/13 13:31:00;;;;;;;1.10;0.50;;;;;;;;;;5067494;28;20131;-59
2024/03/13 13:33:26;;;;;;;1.40;0.52;;;;;;;;;;5068401;28;20041;-59
2024/03/13 13:35:52;;;;;;;0.60;0.40;;;;;;;;;;5069688;28;20039;-58
2024/03/13 13:38:22;;;;;;;1.67;0.60;;;;;;;;;;5066970;28;20036;-59
2024/03/13 13:40:50;;;;;;;1.20;0.50;;;;;;;;;;5056182;28;20542;-59
2024/03/13 13:43:15;;;;;;;1.77;0.47;;;;;;;;;;5067493;28;20043;-60
2024/03/13 13:45:40;;;;;;;1.75;0.70;;;;;;;;;;5068249;28;20044;-59
2024/03/13 13:48:08;;;;;;;1.85;0.80;;;;;;;;;;5068781;28;20364;-60
2024/03/13 13:50:34;;;;;;;1.75;0.50;;;;;;;;;;5070751;28;20259;-60
2024/03/13 13:52:59;;;;;;;1.42;0.70;;;;;;;;;;5066664;28;20584;-59
2024/03/13 13:55:24;;;;;;;2.38;0.57;;;;;;;;;;5069302;28;20544;-59
2024/03/13 13:57:50;;;;;;;1.23;0.50;;;;;;;;;;5064315;28;20131;-58
2024/03/13 14:00:16;;;;;;;1.52;0.52;;;;;;;;;;5067022;28;20127;-57
2024/03/13 14:02:42;;;;;;;1.50;0.50;;;;;;;;;;5063526;28;20111;-59
2024/03/13 14:05:10;;;;;;;1.75;0.50;;;;;;;;;;5068234;28;20032;-59
2024/03/13 14:07:36;;;;;;;1.67;0.50;;;;;;;;;;5067504;28;20158;-57
2024/03/13 14:10:02;;;;;;;1.23;0.47;;;;;;;;;;5049400;28;20112;-59
2024/03/13 14:12:33;;;;;;;2.22;0.73;;;;;;;;;;5067570;28;20044;-60
2024/03/13 14:15:03;;;;;;;2.28;0.50;;;;;;;;;;5065802;28;20515;-60
2024/03/13 14:17:33;;;;;;;6.45;0.60;;;;;;;;;;5048992;28;20056;-59
2024/03/13 14:19:59;;;;;;;2.17;0.80;;;;;;;;;;5062579;28;20167;-59
2024/03/13 14:22:25;;;;;;;1.23;0.50;;;;;;;;;;5067660;28;20119;-59
2024/03/13 14:24:51;;;;;;;1.30;0.50;;;;;;;;;;5067266;28;20107;-59
2024/03/13 14:27:16;;;;;;;2.65;0.50;;;;;;;;;;5065127;28;20047;-59
2024/03/13 14:29:42;;;;;;;1.52;0.65;;;;;;;;;;5067407;28;20036;-59
2024/03/13 14:32:08;;;;;;;0.60;0.30;;;;;;;;;;5071113;28;20036;-60
2024/03/13 14:34:34;;;;;;;3.10;0.68;;;;;;;;;;5064405;28;20060;-60
2024/03/13 14:37:00;;;;;;;0.70;0.40;;;;;;;;;;5067486;28;20134;-58
2024/03/13 14:39:27;;;;;;;1.65;0.60;;;;;;;;;;5067114;28;20032;-59
2024/03/13 14:41:52;;;;;;;1.15;0.47;;;;;;;;;;5063950;28;20070;-58
2024/03/13 14:44:18;;;;;;;1.02;0.50;;;;;;;;;;5067401;28;20036;-57
2024/03/13 14:46:43;;;;;;;1.23;0.45;;;;;;;;;;5063308;28;20097;-59
2024/03/13 14:49:09;;;;;;;1.05;0.52;;;;;;;;;;5065937;28;20071;-59
2024/03/13 14:51:35;;;;;;;1.73;0.50;;;;;;;;;;5066789;28;20056;-59
2024/03/13 14:54:01;;;;;;;0.73;0.40;;;;;;;;;;5066273;28;20779;-60
2024/03/13 14:56:26;;;;;;;2.03;0.68;;;;;;;;;;5072633;28;20544;-59
2024/03/13 14:58:51;;;;;;;1.88;0.68;;;;;;;;;;5063762;28;20531;-59
2024/03/13 15:01:17;;;;;;;1.63;0.52;;;;;;;;;;5066270;28;20567;-59